Time;durP1;ratioP1;P1;durP2;ratioP2;P2;SDS_P1;SDS_P2;PMS_P1;PMS_P2;Temp;Humidity;BMP_temperature;BMP_pressure;BME280_temperature;BME280_humidity;BME280_pressure;Samples;Min_cycle;Max_cycle;Signal;HPM_P1;HPM_P2
2022/04/25 00:01:01;;;;;;;57.77;2.43;;;;;;;;;;5071384;28;20450;-74
2022/04/25 00:03:29;;;;;;;57.97;2.43;;;;;;;;;;5069844;28;20491;-74
2022/04/25 00:05:56;;;;;;;57.90;2.43;;;;;;;;;;5072394;28;20451;-74
2022/04/25 00:08:23;;;;;;;57.93;2.50;;;;;;;;;;5071521;28;21016;-74
2022/04/25 00:10:50;;;;;;;57.87;2.70;;;;;;;;;;5072555;28;20446;-74
2022/04/25 00:13:17;;;;;;;57.97;2.67;;;;;;;;;;5072430;28;20539;-74
2022/04/25 00:15:44;;;;;;;57.87;2.63;;;;;;;;;;5072481;28;20454;-74
2022/04/25 00:18:13;;;;;;;57.87;2.60;;;;;;;;;;5070544;28;20546;-74
2022/04/25 00:20:40;;;;;;;58.10;2.60;;;;;;;;;;5071226;28;20537;-74
2022/04/25 00:23:08;;;;;;;57.93;2.70;;;;;;;;;;5072210;28;20487;-74
2022/04/25 00:25:35;;;;;;;57.87;2.70;;;;;;;;;;5071873;28;20570;-74
2022/04/25 00:28:03;;;;;;;57.87;2.80;;;;;;;;;;5071533;28;20537;-74
2022/04/25 00:30:31;;;;;;;58.07;2.70;;;;;;;;;;5072227;28;20454;-74
2022/04/25 00:32:58;;;;;;;57.77;2.60;;;;;;;;;;5072725;28;20451;-74
2022/04/25 00:35:27;;;;;;;57.67;2.70;;;;;;;;;;5079269;28;20453;-74
2022/04/25 00:37:54;;;;;;;57.97;2.60;;;;;;;;;;5091803;28;20529;-74
2022/04/25 00:40:22;;;;;;;58.03;2.70;;;;;;;;;;5091316;28;20476;-74
2022/04/25 00:42:50;;;;;;;57.97;2.60;;;;;;;;;;5091665;28;20447;-74
2022/04/25 00:45:17;;;;;;;57.83;2.57;;;;;;;;;;5091373;28;21013;-74
2022/04/25 00:47:45;;;;;;;57.93;2.70;;;;;;;;;;5091141;28;20471;-74
2022/04/25 00:50:12;;;;;;;58.67;4.00;;;;;;;;;;5092033;28;20990;-74
2022/04/25 00:52:41;;;;;;;57.90;2.60;;;;;;;;;;5091842;28;20795;-74
2022/04/25 00:55:09;;;;;;;58.03;2.70;;;;;;;;;;5091983;28;20891;-74
2022/04/25 00:57:37;;;;;;;58.10;3.00;;;;;;;;;;5091166;28;20469;-74
2022/04/25 01:00:06;;;;;;;58.10;2.60;;;;;;;;;;5092249;28;20469;-74
2022/04/25 01:02:33;;;;;;;57.73;2.50;;;;;;;;;;5090561;28;20460;-74
2022/04/25 01:05:00;;;;;;;57.77;2.60;;;;;;;;;;5091473;28;20485;-74
2022/04/25 01:07:27;;;;;;;57.67;2.13;;;;;;;;;;5079755;28;20455;-74
2022/04/25 01:09:56;;;;;;;57.77;2.40;;;;;;;;;;5071483;28;20471;-73
2022/04/25 01:12:23;;;;;;;57.77;2.60;;;;;;;;;;5071248;28;20541;-74
2022/04/25 01:14:57;;;;;;;57.87;2.60;;;;;;;;;;5071294;28;20534;-73
2022/04/25 01:17:24;;;;;;;58.30;3.10;;;;;;;;;;5070394;28;20456;-74
2022/04/25 01:19:51;;;;;;;58.07;2.57;;;;;;;;;;5071204;28;20916;-74
2022/04/25 01:22:20;;;;;;;57.93;2.80;;;;;;;;;;5070485;28;20994;-74
2022/04/25 01:27:34;;;;;;;62.87;4.67;;;;;;;;;;5070326;28;20515;-70
2022/04/25 01:30:03;;;;;;;58.10;3.33;;;;;;;;;;5070801;28;20471;-74
2022/04/25 01:32:31;;;;;;;57.87;2.57;;;;;;;;;;5071172;28;20516;-74
2022/04/25 01:34:58;;;;;;;58.10;2.60;;;;;;;;;;5071063;28;20452;-74
2022/04/25 01:37:26;;;;;;;57.93;2.50;;;;;;;;;;5069928;28;20460;-74
2022/04/25 01:39:55;;;;;;;57.83;2.33;;;;;;;;;;5068140;28;20475;-74
2022/04/25 01:42:23;;;;;;;58.60;2.80;;;;;;;;;;5070440;28;20458;-73
2022/04/25 01:44:50;;;;;;;58.37;3.63;;;;;;;;;;5066510;28;20859;-74
2022/04/25 01:47:18;;;;;;;57.83;2.50;;;;;;;;;;5069870;28;20524;-75
2022/04/25 01:49:45;;;;;;;57.90;2.50;;;;;;;;;;5071081;28;20572;-74
2022/04/25 01:52:20;;;;;;;57.87;2.60;;;;;;;;;;5070313;28;20788;-74
2022/04/25 01:54:48;;;;;;;57.87;2.90;;;;;;;;;;5070949;28;20526;-74
2022/04/25 01:57:16;;;;;;;58.17;2.70;;;;;;;;;;5069977;28;20799;-74
2022/04/25 01:59:45;;;;;;;57.90;2.50;;;;;;;;;;5071264;28;20527;-74
2022/04/25 02:02:12;;;;;;;57.93;2.80;;;;;;;;;;5070053;28;20455;-74
2022/04/25 02:04:39;;;;;;;57.87;2.60;;;;;;;;;;5070517;28;20497;-75
2022/04/25 02:07:07;;;;;;;58.10;3.20;;;;;;;;;;5070340;28;20541;-74
2022/04/25 02:09:34;;;;;;;57.93;2.53;;;;;;;;;;5070019;28;20476;-73
2022/04/25 02:12:01;;;;;;;57.97;2.63;;;;;;;;;;5068240;28;20465;-72
2022/04/25 02:14:30;;;;;;;57.63;2.40;;;;;;;;;;5070861;28;20921;-73
2022/04/25 02:16:58;;;;;;;57.93;2.60;;;;;;;;;;5070343;28;20455;-73
2022/04/25 02:19:25;;;;;;;57.80;2.70;;;;;;;;;;5070198;28;20494;-73
2022/04/25 02:21:53;;;;;;;57.77;2.50;;;;;;;;;;5070115;28;20456;-73
2022/04/25 02:24:20;;;;;;;57.97;2.60;;;;;;;;;;5070324;28;20517;-73
2022/04/25 02:26:48;;;;;;;58.13;2.80;;;;;;;;;;5070105;28;20540;-73
2022/04/25 02:29:15;;;;;;;57.77;2.70;;;;;;;;;;5069249;28;20505;-74
2022/04/25 02:31:44;;;;;;;58.40;3.07;;;;;;;;;;5070939;28;20453;-73
2022/04/25 02:34:11;;;;;;;58.07;2.50;;;;;;;;;;5070595;28;20455;-73
2022/04/25 02:36:38;;;;;;;57.87;2.40;;;;;;;;;;5070335;28;20548;-73
2022/04/25 02:39:06;;;;;;;57.90;2.50;;;;;;;;;;5069634;28;20557;-73
2022/04/25 02:41:33;;;;;;;57.87;2.70;;;;;;;;;;5071514;28;20473;-74
2022/04/25 02:44:00;;;;;;;57.77;2.30;;;;;;;;;;5079428;28;20849;-74
2022/04/25 02:46:27;;;;;;;58.00;2.60;;;;;;;;;;5094082;28;20942;-74
2022/04/25 02:48:56;;;;;;;57.63;2.50;;;;;;;;;;5093009;28;21056;-74
2022/04/25 02:51:24;;;;;;;57.83;2.53;;;;;;;;;;5094300;28;20833;-74
2022/04/25 02:53:51;;;;;;;58.00;2.47;;;;;;;;;;5094679;28;20445;-74
2022/04/25 02:56:18;;;;;;;57.83;2.50;;;;;;;;;;5094186;28;20537;-74
2022/04/25 02:58:45;;;;;;;57.97;2.50;;;;;;;;;;5093036;28;20492;-74
2022/04/25 03:01:13;;;;;;;58.07;2.80;;;;;;;;;;5094058;28;20484;-75
2022/04/25 03:03:40;;;;;;;57.90;2.80;;;;;;;;;;5093613;28;20537;-74
2022/04/25 03:06:10;;;;;;;57.90;2.60;;;;;;;;;;5093617;28;20805;-73
2022/04/25 03:08:37;;;;;;;57.83;2.37;;;;;;;;;;5092522;28;20470;-74
2022/04/25 03:11:05;;;;;;;57.87;2.80;;;;;;;;;;5093738;28;20457;-74
2022/04/25 03:13:34;;;;;;;57.87;2.70;;;;;;;;;;5093906;28;20950;-74
2022/04/25 03:16:01;;;;;;;57.90;2.70;;;;;;;;;;5090853;28;20460;-74
2022/04/25 03:18:29;;;;;;;57.87;2.83;;;;;;;;;;5092597;28;20560;-74
2022/04/25 03:20:56;;;;;;;57.83;2.60;;;;;;;;;;5093464;28;20466;-74
2022/04/25 03:23:25;;;;;;;58.00;2.90;;;;;;;;;;5093050;28;20446;-74
2022/04/25 03:25:52;;;;;;;57.77;2.50;;;;;;;;;;5093653;28;20476;-75
2022/04/25 03:28:20;;;;;;;57.90;2.77;;;;;;;;;;5092233;28;20456;-74
2022/04/25 03:30:47;;;;;;;57.80;2.50;;;;;;;;;;5093429;28;20448;-74
2022/04/25 03:33:15;;;;;;;57.90;2.50;;;;;;;;;;5093824;28;20481;-75
2022/04/25 03:35:46;;;;;;;57.80;2.40;;;;;;;;;;5093655;28;20523;-75
2022/04/25 03:38:14;;;;;;;57.80;2.50;;;;;;;;;;5092236;28;20476;-74
2022/04/25 03:40:43;;;;;;;57.57;2.50;;;;;;;;;;5094165;28;20479;-74
2022/04/25 03:43:10;;;;;;;57.77;2.50;;;;;;;;;;5093265;28;20454;-74
2022/04/25 03:45:39;;;;;;;57.87;2.40;;;;;;;;;;5092560;28;20481;-74
2022/04/25 03:48:06;;;;;;;57.87;2.70;;;;;;;;;;5075908;28;20462;-74
2022/04/25 03:50:34;;;;;;;58.40;3.00;;;;;;;;;;5072290;28;20534;-74
2022/04/25 03:53:07;;;;;;;57.67;2.40;;;;;;;;;;5072884;28;20455;-74
2022/04/25 03:58:20;;;;;;;57.67;2.30;;;;;;;;;;5092133;28;20422;-74
2022/04/25 04:00:47;;;;;;;57.97;2.60;;;;;;;;;;5092524;28;20950;-74
2022/04/25 04:03:17;;;;;;;58.50;3.43;;;;;;;;;;5092745;28;20450;-74
2022/04/25 04:05:44;;;;;;;57.97;2.70;;;;;;;;;;5091954;28;20521;-74
2022/04/25 04:08:11;;;;;;;57.73;2.40;;;;;;;;;;5091691;28;20954;-75
2022/04/25 04:10:38;;;;;;;57.80;2.50;;;;;;;;;;5092067;28;20456;-74
2022/04/25 04:13:06;;;;;;;57.77;2.50;;;;;;;;;;5092805;28;20460;-74
2022/04/25 04:15:34;;;;;;;57.90;2.30;;;;;;;;;;5092684;28;20495;-74
2022/04/25 04:18:02;;;;;;;57.70;2.50;;;;;;;;;;5087962;28;20450;-74
2022/04/25 04:20:29;;;;;;;57.57;2.43;;;;;;;;;;5091691;28;20511;-74
2022/04/25 04:22:56;;;;;;;57.80;2.40;;;;;;;;;;5092370;28;20453;-74
2022/04/25 04:25:23;;;;;;;57.77;2.50;;;;;;;;;;5092155;28;20521;-74
2022/04/25 04:27:50;;;;;;;57.93;2.73;;;;;;;;;;5091299;28;20449;-75
2022/04/25 04:30:18;;;;;;;57.63;2.60;;;;;;;;;;5091321;28;20492;-74
2022/04/25 04:32:47;;;;;;;57.77;2.60;;;;;;;;;;5092495;28;20876;-73
2022/04/25 04:36:17;;;;;;;57.90;3.07;;;;;;;;;;5092438;28;20955;-74
2022/04/25 04:38:03;;;;;;;57.53;2.47;;;;;;;;;;5091472;28;20922;-74
2022/04/25 04:40:30;;;;;;;58.30;3.47;;;;;;;;;;5091711;28;20458;-74
2022/04/25 04:42:58;;;;;;;57.77;2.47;;;;;;;;;;5091786;28;20457;-74
2022/04/25 04:45:26;;;;;;;57.60;2.50;;;;;;;;;;5091641;28;20489;-74
2022/04/25 04:47:55;;;;;;;57.63;2.60;;;;;;;;;;5091091;28;20445;-74
2022/04/25 04:50:22;;;;;;;57.70;2.50;;;;;;;;;;5087485;28;20845;-74
2022/04/25 04:52:49;;;;;;;57.67;2.57;;;;;;;;;;5091752;28;20817;-74
2022/04/25 04:55:17;;;;;;;57.83;2.70;;;;;;;;;;5095487;28;20508;-73
2022/04/25 04:57:45;;;;;;;57.87;2.43;;;;;;;;;;5091429;28;20529;-72
2022/04/25 05:00:13;;;;;;;58.30;3.40;;;;;;;;;;5091743;28;20462;-73
2022/04/25 05:02:40;;;;;;;57.50;2.30;;;;;;;;;;5091374;28;20503;-73
2022/04/25 05:05:09;;;;;;;57.57;2.50;;;;;;;;;;5091063;28;20481;-73
2022/04/25 05:07:37;;;;;;;57.77;2.53;;;;;;;;;;5090752;28;20822;-74
2022/04/25 05:10:04;;;;;;;57.97;2.60;;;;;;;;;;5090905;28;20883;-73
2022/04/25 05:12:31;;;;;;;58.80;5.07;;;;;;;;;;5091611;28;20442;-73
2022/04/25 05:14:58;;;;;;;60.17;3.33;;;;;;;;;;5091854;28;20511;-73
2022/04/25 05:17:26;;;;;;;57.67;2.40;;;;;;;;;;5090949;28;20969;-73
2022/04/25 05:19:53;;;;;;;57.70;2.40;;;;;;;;;;5091257;28;20672;-73
2022/04/25 05:22:21;;;;;;;57.57;2.57;;;;;;;;;;5087820;28;20453;-74
2022/04/25 05:24:49;;;;;;;57.57;2.33;;;;;;;;;;5091676;28;20449;-73
2022/04/25 05:27:16;;;;;;;57.77;2.73;;;;;;;;;;5090153;28;20450;-73
2022/04/25 05:29:44;;;;;;;57.60;2.47;;;;;;;;;;5091010;28;20501;-73
2022/04/25 05:32:12;;;;;;;57.47;2.40;;;;;;;;;;5090672;28;20452;-73
2022/04/25 05:34:39;;;;;;;57.47;2.50;;;;;;;;;;5091336;28;20536;-73
2022/04/25 05:37:06;;;;;;;57.57;2.37;;;;;;;;;;5091562;28;20470;-73
2022/04/25 05:39:35;;;;;;;58.50;4.10;;;;;;;;;;5091009;28;20546;-73
2022/04/25 05:42:02;;;;;;;57.90;2.40;;;;;;;;;;5090764;28;20446;-73
2022/04/25 05:44:29;;;;;;;57.43;2.40;;;;;;;;;;5091037;28;20457;-73
2022/04/25 05:46:57;;;;;;;57.73;2.70;;;;;;;;;;5090800;28;20493;-73
2022/04/25 05:52:10;;;;;;;57.47;2.40;;;;;;;;;;5090371;28;20429;-73
2022/04/25 05:54:39;;;;;;;57.57;2.67;;;;;;;;;;5087314;28;20511;-74
2022/04/25 05:57:07;;;;;;;57.57;2.40;;;;;;;;;;5091030;28;20443;-74
2022/04/25 05:59:34;;;;;;;57.70;2.43;;;;;;;;;;5090558;28;20466;-73
2022/04/25 06:02:01;;;;;;;57.23;2.50;;;;;;;;;;5090923;28;20829;-73
2022/04/25 06:04:28;;;;;;;57.27;2.37;;;;;;;;;;5090669;28;21159;-73
2022/04/25 06:06:55;;;;;;;57.70;2.50;;;;;;;;;;5090690;28;20486;-73
2022/04/25 06:09:25;;;;;;;57.57;2.53;;;;;;;;;;5090121;28;20517;-74
2022/04/25 06:11:54;;;;;;;57.67;2.50;;;;;;;;;;5090813;28;20802;-73
2022/04/25 06:14:22;;;;;;;57.40;2.40;;;;;;;;;;5091197;28;20863;-73
2022/04/25 06:16:49;;;;;;;57.73;2.40;;;;;;;;;;5093940;28;20445;-74
2022/04/25 06:19:17;;;;;;;57.63;2.80;;;;;;;;;;5094310;28;20477;-73
2022/04/25 06:21:44;;;;;;;57.87;2.63;;;;;;;;;;5094685;28;20536;-73
2022/04/25 06:24:11;;;;;;;57.47;2.40;;;;;;;;;;5094139;28;20442;-73
2022/04/25 06:26:38;;;;;;;57.57;2.60;;;;;;;;;;5090665;28;20497;-74
2022/04/25 06:29:07;;;;;;;57.33;2.33;;;;;;;;;;5093586;28;20905;-74
2022/04/25 06:31:34;;;;;;;57.67;3.00;;;;;;;;;;5094058;28;20446;-73
2022/04/25 06:34:01;;;;;;;57.57;2.50;;;;;;;;;;5094596;28;20476;-73
2022/04/25 06:36:29;;;;;;;57.70;3.20;;;;;;;;;;5094476;28;20606;-74
2022/04/25 06:38:56;;;;;;;57.77;2.90;;;;;;;;;;5094116;28;20505;-73
2022/04/25 06:41:23;;;;;;;57.70;3.00;;;;;;;;;;5094038;28;20710;-73
2022/04/25 06:43:50;;;;;;;57.63;2.50;;;;;;;;;;5094392;28;20533;-73
2022/04/25 06:46:19;;;;;;;57.70;3.00;;;;;;;;;;5093990;28;20555;-74
2022/04/25 06:49:19;;;;;;;57.57;2.50;;;;;;;;;;5093266;28;20565;-74
2022/04/25 06:51:33;;;;;;;57.70;2.70;;;;;;;;;;5093915;28;20875;-74
2022/04/25 06:54:01;;;;;;;57.37;2.47;;;;;;;;;;5094245;28;20955;-74
2022/04/25 06:56:28;;;;;;;57.43;2.20;;;;;;;;;;5089762;28;20661;-74
2022/04/25 06:58:55;;;;;;;57.67;2.40;;;;;;;;;;5093446;28;21053;-74
2022/04/25 07:01:24;;;;;;;58.20;3.57;;;;;;;;;;5093942;28;20446;-74
2022/04/25 07:03:51;;;;;;;57.67;3.00;;;;;;;;;;5093698;28;20499;-74
2022/04/25 07:06:19;;;;;;;57.67;2.60;;;;;;;;;;5093194;28;20508;-74
2022/04/25 07:08:46;;;;;;;57.80;2.30;;;;;;;;;;5093195;28;20493;-74
2022/04/25 07:11:13;;;;;;;57.63;2.40;;;;;;;;;;5093596;28;20450;-74
2022/04/25 07:13:41;;;;;;;57.70;2.50;;;;;;;;;;5093908;28;20821;-74
2022/04/25 07:16:09;;;;;;;57.63;2.50;;;;;;;;;;5093702;28;20442;-74
2022/04/25 07:18:38;;;;;;;57.37;2.30;;;;;;;;;;5092989;28;20485;-75
2022/04/25 07:28:48;;;;;;;57.47;2.50;;;;;;;;;;5093597;28;20457;-74
2022/04/25 07:29:23;;;;;;;57.87;2.50;;;;;;;;;;5089096;28;20467;-74
2022/04/25 07:31:51;;;;;;;57.63;2.43;;;;;;;;;;5092887;28;20464;-74
2022/04/25 07:34:20;;;;;;;57.67;2.30;;;;;;;;;;5093666;28;20458;-74
2022/04/25 07:36:51;;;;;;;57.77;2.80;;;;;;;;;;5079113;28;20448;-74
2022/04/25 07:39:18;;;;;;;57.87;2.50;;;;;;;;;;5072673;28;20475;-74
2022/04/25 07:41:45;;;;;;;57.87;2.60;;;;;;;;;;5072701;28;21030;-75
2022/04/25 07:44:12;;;;;;;58.80;4.73;;;;;;;;;;5072912;28;20459;-74
2022/04/25 07:46:41;;;;;;;57.57;2.33;;;;;;;;;;5072307;28;20483;-74
2022/04/25 07:49:09;;;;;;;57.73;2.60;;;;;;;;;;5071728;28;20480;-74
2022/04/25 07:51:37;;;;;;;58.17;3.00;;;;;;;;;;5072707;28;20451;-75
2022/04/25 07:54:05;;;;;;;58.00;2.60;;;;;;;;;;5072729;28;20455;-75
2022/04/25 07:56:32;;;;;;;57.90;2.47;;;;;;;;;;5072739;28;20448;-74
2022/04/25 07:59:01;;;;;;;59.03;4.10;;;;;;;;;;5071653;28;20555;-75
2022/04/25 08:01:28;;;;;;;57.67;2.50;;;;;;;;;;5070277;28;20463;-74
2022/04/25 08:03:55;;;;;;;57.63;2.37;;;;;;;;;;5072710;28;20462;-74
2022/04/25 08:06:22;;;;;;;57.67;2.47;;;;;;;;;;5072471;28;20557;-74
2022/04/25 08:08:51;;;;;;;57.33;2.30;;;;;;;;;;5070775;28;20482;-75
2022/04/25 08:11:19;;;;;;;57.73;2.57;;;;;;;;;;5072013;28;20443;-74
2022/04/25 08:19:17;;;;;;;57.70;2.33;;;;;;;;;;5053772;28;20548;-75
2022/04/25 08:21:45;;;;;;;57.97;2.60;;;;;;;;;;5072238;28;20549;-75
2022/04/25 08:24:14;;;;;;;57.90;2.37;;;;;;;;;;5072325;28;20471;-75
2022/04/25 08:26:41;;;;;;;57.37;2.20;;;;;;;;;;5071856;28;20492;-75
2022/04/25 08:29:08;;;;;;;57.67;2.20;;;;;;;;;;5071115;28;20511;-75
2022/04/25 08:31:36;;;;;;;57.80;2.50;;;;;;;;;;5076957;28;20448;-75
2022/04/25 08:34:04;;;;;;;58.10;2.60;;;;;;;;;;5092164;28;20818;-75
2022/04/25 08:36:31;;;;;;;58.23;3.70;;;;;;;;;;5092942;28;20534;-75
2022/04/25 08:38:58;;;;;;;57.57;2.63;;;;;;;;;;5090367;28;20468;-75
2022/04/25 08:41:29;;;;;;;57.87;2.60;;;;;;;;;;5091890;28;21078;-75
2022/04/25 08:43:57;;;;;;;57.77;2.43;;;;;;;;;;5092165;28;20942;-75
2022/04/25 08:46:24;;;;;;;57.67;2.60;;;;;;;;;;5091962;28;20511;-75
2022/04/25 08:48:51;;;;;;;57.77;3.10;;;;;;;;;;5090288;28;20571;-75
2022/04/25 08:51:20;;;;;;;58.07;2.90;;;;;;;;;;5092038;28;20484;-75
2022/04/25 08:53:47;;;;;;;57.97;2.50;;;;;;;;;;5091407;28;20450;-75
2022/04/25 08:56:15;;;;;;;57.73;2.67;;;;;;;;;;5092399;28;20432;-75
2022/04/25 08:58:46;;;;;;;57.77;2.10;;;;;;;;;;5090776;28;20649;-74
2022/04/25 09:01:15;;;;;;;57.57;2.10;;;;;;;;;;5091038;28;20461;-75
2022/04/25 09:03:42;;;;;;;57.77;2.57;;;;;;;;;;5075502;28;20976;-73
2022/04/25 09:06:09;;;;;;;58.20;3.27;;;;;;;;;;5071444;28;20500;-73
2022/04/25 09:08:37;;;;;;;57.63;2.73;;;;;;;;;;5069750;28;20469;-73
2022/04/25 09:13:47;;;;;;;57.87;2.40;;;;;;;;;;5070575;28;20468;-73
2022/04/25 09:16:14;;;;;;;57.80;2.40;;;;;;;;;;5071653;28;20529;-73
2022/04/25 09:18:41;;;;;;;57.37;2.30;;;;;;;;;;5070833;28;20494;-73
2022/04/25 09:21:09;;;;;;;57.87;2.53;;;;;;;;;;5071222;28;20443;-73
2022/04/25 09:23:36;;;;;;;57.30;2.30;;;;;;;;;;5091384;28;20491;-73
2022/04/25 09:26:10;;;;;;;57.17;2.30;;;;;;;;;;5091388;28;20442;-73
2022/04/25 09:28:47;;;;;;;57.80;2.60;;;;;;;;;;5087144;28;21123;-73
2022/04/25 09:31:14;;;;;;;57.23;2.10;;;;;;;;;;5070835;28;20450;-76
2022/04/25 09:33:42;;;;;;;57.57;2.10;;;;;;;;;;5071972;28;20455;-73
2022/04/25 09:36:09;;;;;;;58.10;2.80;;;;;;;;;;5073326;28;20519;-74
2022/04/25 09:38:37;;;;;;;58.00;2.60;;;;;;;;;;5071256;28;20502;-74
2022/04/25 09:41:04;;;;;;;57.97;2.30;;;;;;;;;;5080692;28;20969;-74
2022/04/25 09:43:32;;;;;;;60.67;3.43;;;;;;;;;;5090839;28;20974;-75
2022/04/25 09:46:04;;;;;;;57.70;2.70;;;;;;;;;;5091363;28;20542;-74
2022/04/25 09:48:31;;;;;;;57.93;2.30;;;;;;;;;;5089638;28;20489;-74
2022/04/25 09:51:02;;;;;;;58.00;2.80;;;;;;;;;;5089945;28;20449;-74
2022/04/25 09:53:43;;;;;;;57.77;2.33;;;;;;;;;;5090853;28;20453;-73
2022/04/25 09:56:17;;;;;;;57.67;2.50;;;;;;;;;;5091114;28;20535;-73
2022/04/25 09:58:45;;;;;;;57.87;2.20;;;;;;;;;;5090417;28;20496;-73
2022/04/25 10:01:14;;;;;;;57.67;2.43;;;;;;;;;;5090855;28;20457;-73
2022/04/25 10:03:42;;;;;;;57.83;2.20;;;;;;;;;;5091322;28;20461;-73
2022/04/25 10:06:09;;;;;;;57.63;2.10;;;;;;;;;;5091091;28;20534;-73
2022/04/25 10:08:37;;;;;;;57.97;2.23;;;;;;;;;;5089395;28;20468;-73
2022/04/25 10:11:06;;;;;;;57.47;2.30;;;;;;;;;;5090300;28;20452;-73
2022/04/25 10:13:33;;;;;;;57.97;2.40;;;;;;;;;;5090574;28;20446;-74
2022/04/25 10:16:01;;;;;;;57.37;2.50;;;;;;;;;;5085011;28;20833;-74
2022/04/25 10:18:31;;;;;;;58.57;3.13;;;;;;;;;;5069856;28;20463;-74
2022/04/25 10:20:59;;;;;;;58.13;3.07;;;;;;;;;;5070520;28;20446;-74
2022/04/25 10:23:26;;;;;;;57.77;2.10;;;;;;;;;;5070363;28;20454;-74
2022/04/25 10:25:54;;;;;;;60.73;3.30;;;;;;;;;;5070435;28;20671;-74
2022/04/25 10:28:25;;;;;;;57.77;2.20;;;;;;;;;;5069207;28;20486;-74
2022/04/25 10:30:53;;;;;;;57.70;2.10;;;;;;;;;;5070267;28;20439;-74
2022/04/25 10:33:21;;;;;;;57.50;2.17;;;;;;;;;;5070474;28;20457;-74
2022/04/25 10:35:50;;;;;;;57.80;2.90;;;;;;;;;;5070351;28;20447;-75
2022/04/25 10:44:11;;;;;;;57.17;2.20;;;;;;;;;;5070390;28;20480;-74
2022/04/25 10:46:53;;;;;;;57.43;2.20;;;;;;;;;;5069569;28;20534;-74
2022/04/25 10:49:28;;;;;;;57.53;2.00;;;;;;;;;;5082784;28;20477;-74
2022/04/25 10:51:56;;;;;;;57.27;1.90;;;;;;;;;;5090100;28;20446;-74
2022/04/25 10:54:27;;;;;;;57.60;2.00;;;;;;;;;;5089967;28;20453;-74
2022/04/25 10:57:14;;;;;;;57.80;2.70;;;;;;;;;;5090651;28;20492;-74
2022/04/25 10:59:41;;;;;;;57.37;2.10;;;;;;;;;;5090431;28;20465;-75
2022/04/25 11:02:21;;;;;;;57.53;2.67;;;;;;;;;;5091754;28;20442;-74
2022/04/25 11:04:48;;;;;;;58.10;2.43;;;;;;;;;;5094341;28;20448;-74
2022/04/25 11:07:25;;;;;;;57.57;2.30;;;;;;;;;;5093492;28;20574;-74
2022/04/25 11:09:53;;;;;;;58.07;2.20;;;;;;;;;;5093054;28;20976;-74
2022/04/25 11:12:20;;;;;;;57.80;2.30;;;;;;;;;;5093545;28;20462;-74
2022/04/25 11:14:58;;;;;;;57.47;2.30;;;;;;;;;;5093838;28;20448;-74
2022/04/25 11:17:26;;;;;;;57.73;2.37;;;;;;;;;;5093180;28;20454;-74
2022/04/25 11:19:55;;;;;;;58.20;2.67;;;;;;;;;;5090273;28;20474;-74
2022/04/25 11:22:46;;;;;;;58.07;2.40;;;;;;;;;;5093178;28;20497;-74
2022/04/25 11:25:32;;;;;;;57.90;2.40;;;;;;;;;;5093223;28;20480;-75
2022/04/25 11:28:04;;;;;;;58.10;2.30;;;;;;;;;;5092750;28;20481;-74
2022/04/25 11:30:31;;;;;;;57.57;2.40;;;;;;;;;;5092647;28;20477;-74
2022/04/25 11:33:02;;;;;;;57.93;2.20;;;;;;;;;;5092030;28;20481;-74
2022/04/25 11:35:29;;;;;;;57.67;2.20;;;;;;;;;;5093372;28;20550;-74
2022/04/25 11:37:57;;;;;;;57.77;2.30;;;;;;;;;;5093128;28;20438;-74
2022/04/25 11:40:26;;;;;;;57.80;2.60;;;;;;;;;;5093552;28;20470;-74
2022/04/25 11:42:54;;;;;;;57.90;2.30;;;;;;;;;;5093047;28;20538;-74
2022/04/25 11:45:22;;;;;;;58.10;2.60;;;;;;;;;;5093294;28;20699;-74
2022/04/25 11:47:49;;;;;;;57.87;2.20;;;;;;;;;;5092597;28;20573;-75
2022/04/25 11:50:20;;;;;;;57.77;2.67;;;;;;;;;;5092979;28;20531;-74
2022/04/25 11:52:48;;;;;;;57.70;2.57;;;;;;;;;;5089148;28;20455;-74
2022/04/25 11:55:15;;;;;;;57.90;2.53;;;;;;;;;;5092584;28;20473;-74
2022/04/25 11:57:45;;;;;;;57.63;3.00;;;;;;;;;;5092548;28;20447;-74
2022/04/25 12:00:14;;;;;;;57.73;2.30;;;;;;;;;;5092993;28;20839;-75
2022/04/25 12:02:42;;;;;;;57.63;2.10;;;;;;;;;;5092893;28;20438;-74
2022/04/25 12:05:10;;;;;;;57.37;2.30;;;;;;;;;;5093052;28;20447;-74
2022/04/25 12:07:38;;;;;;;57.67;2.40;;;;;;;;;;5092240;28;20518;-74
2022/04/25 12:15:37;;;;;;;57.73;2.30;;;;;;;;;;5092262;28;20813;-75
2022/04/25 12:18:16;;;;;;;57.77;2.40;;;;;;;;;;5092133;28;20451;-74
2022/04/25 12:20:45;;;;;;;57.90;2.27;;;;;;;;;;5093195;28;20789;-74
2022/04/25 12:23:20;;;;;;;58.07;2.90;;;;;;;;;;5089103;28;20465;-76
2022/04/25 12:25:47;;;;;;;58.13;2.80;;;;;;;;;;5092014;28;20454;-75
2022/04/25 12:28:17;;;;;;;57.97;2.30;;;;;;;;;;5091625;28;20491;-76
2022/04/25 12:30:45;;;;;;;57.93;2.87;;;;;;;;;;5092001;28;20830;-76
2022/04/25 12:33:14;;;;;;;58.40;3.17;;;;;;;;;;5091976;28;20451;-76
2022/04/25 12:35:43;;;;;;;58.07;2.40;;;;;;;;;;5091640;28;20489;-76
2022/04/25 12:38:11;;;;;;;58.50;3.17;;;;;;;;;;5091861;28;20801;-76
2022/04/25 12:40:56;;;;;;;57.67;2.70;;;;;;;;;;5092466;28;20547;-76
2022/04/25 12:43:36;;;;;;;57.93;2.63;;;;;;;;;;5092069;28;20444;-76
2022/04/25 12:46:03;;;;;;;57.90;3.47;;;;;;;;;;5091887;28;20452;-72
2022/04/25 12:48:32;;;;;;;58.07;2.60;;;;;;;;;;5091568;28;20500;-76
2022/04/25 12:51:02;;;;;;;57.87;2.60;;;;;;;;;;5091745;28;20480;-76
2022/04/25 12:53:39;;;;;;;57.97;2.50;;;;;;;;;;5091053;28;20548;-76
2022/04/25 12:56:07;;;;;;;57.87;2.40;;;;;;;;;;5088838;28;20780;-76
2022/04/25 12:58:34;;;;;;;57.67;2.60;;;;;;;;;;5091196;28;20527;-76
2022/04/25 13:01:01;;;;;;;57.87;2.70;;;;;;;;;;5092031;28;20540;-76
2022/04/25 13:03:28;;;;;;;58.10;2.60;;;;;;;;;;5091666;28;20448;-76
2022/04/25 13:05:55;;;;;;;57.53;2.50;;;;;;;;;;5091876;28;20451;-76
2022/04/25 13:08:24;;;;;;;57.90;2.00;;;;;;;;;;5090840;28;20481;-76
2022/04/25 13:10:51;;;;;;;58.43;3.37;;;;;;;;;;5091007;28;20495;-76
2022/04/25 13:13:18;;;;;;;57.97;2.13;;;;;;;;;;5091232;28;20541;-76
2022/04/25 13:15:47;;;;;;;57.80;2.50;;;;;;;;;;5090984;28;20449;-76
2022/04/25 13:18:14;;;;;;;57.77;2.43;;;;;;;;;;5090573;28;20942;-76
2022/04/25 13:20:41;;;;;;;57.97;2.33;;;;;;;;;;5091747;28;20449;-77
2022/04/25 13:23:09;;;;;;;58.27;2.90;;;;;;;;;;5091587;28;20528;-76
2022/04/25 13:25:37;;;;;;;57.57;2.10;;;;;;;;;;5087594;28;20453;-77
2022/04/25 13:28:05;;;;;;;57.77;2.20;;;;;;;;;;5089794;28;20521;-76
2022/04/25 13:30:32;;;;;;;58.20;2.60;;;;;;;;;;5091105;28;20558;-76
2022/04/25 13:32:59;;;;;;;57.87;2.30;;;;;;;;;;5091084;28;20445;-76
2022/04/25 13:35:29;;;;;;;58.00;3.07;;;;;;;;;;5090998;28;20481;-76
2022/04/25 13:37:56;;;;;;;57.60;2.40;;;;;;;;;;5089758;28;20543;-75
2022/04/25 13:40:23;;;;;;;59.10;3.27;;;;;;;;;;5091309;28;20497;-75
2022/04/25 13:42:53;;;;;;;57.87;2.50;;;;;;;;;;5091398;28;20454;-75
2022/04/25 13:45:20;;;;;;;57.93;2.60;;;;;;;;;;5090982;28;20452;-75
2022/04/25 13:47:47;;;;;;;58.07;2.50;;;;;;;;;;5089985;28;21003;-75
2022/04/25 13:50:14;;;;;;;57.93;2.70;;;;;;;;;;5090994;28;20561;-75
2022/04/25 13:52:41;;;;;;;58.13;2.60;;;;;;;;;;5090609;28;20447;-75
2022/04/25 13:55:11;;;;;;;58.20;2.47;;;;;;;;;;5090802;28;20446;-75
2022/04/25 13:57:38;;;;;;;57.93;2.50;;;;;;;;;;5086644;28;20538;-75
2022/04/25 14:00:08;;;;;;;57.93;2.47;;;;;;;;;;5090587;28;20473;-75
2022/04/25 14:05:20;;;;;;;57.80;2.37;;;;;;;;;;5091173;28;20433;-75
2022/04/25 14:07:47;;;;;;;57.73;2.50;;;;;;;;;;5089942;28;20470;-75
2022/04/25 14:10:14;;;;;;;57.90;2.63;;;;;;;;;;5090488;28;20841;-75
2022/04/25 14:12:41;;;;;;;57.77;2.40;;;;;;;;;;5091095;28;20484;-75
2022/04/25 14:15:10;;;;;;;57.57;2.50;;;;;;;;;;5090667;28;20480;-73
2022/04/25 14:17:37;;;;;;;57.87;2.50;;;;;;;;;;5089557;28;20453;-73
2022/04/25 14:20:05;;;;;;;58.07;2.60;;;;;;;;;;5090945;28;20476;-73
2022/04/25 14:22:32;;;;;;;57.33;2.13;;;;;;;;;;5091145;28;20485;-73
2022/04/25 14:25:00;;;;;;;57.47;2.10;;;;;;;;;;5090866;28;20457;-73
2022/04/25 14:27:27;;;;;;;57.83;3.13;;;;;;;;;;5089099;28;20450;-75
2022/04/25 14:29:54;;;;;;;58.20;3.33;;;;;;;;;;5087400;28;20466;-74
2022/04/25 14:32:23;;;;;;;57.57;2.30;;;;;;;;;;5090072;28;20459;-75
2022/04/25 14:34:50;;;;;;;57.63;2.20;;;;;;;;;;5090611;28;20446;-74
2022/04/25 14:37:17;;;;;;;57.17;2.00;;;;;;;;;;5091336;28;20446;-75
2022/04/25 14:39:44;;;;;;;57.53;2.40;;;;;;;;;;5094306;28;21046;-74
2022/04/25 14:42:11;;;;;;;57.37;2.40;;;;;;;;;;5094775;28;20446;-72
2022/04/25 14:44:38;;;;;;;57.57;2.20;;;;;;;;;;5094265;28;20457;-75
2022/04/25 14:47:07;;;;;;;57.67;2.30;;;;;;;;;;5094209;28;20452;-76
2022/04/25 14:55:06;;;;;;;57.47;1.97;;;;;;;;;;5093887;28;20430;-74
2022/04/25 14:57:33;;;;;;;58.20;2.30;;;;;;;;;;5092826;28;20446;-75
2022/04/25 15:00:00;;;;;;;57.77;2.20;;;;;;;;;;5090755;28;20873;-75
2022/04/25 15:02:27;;;;;;;57.80;2.20;;;;;;;;;;5094169;28;20512;-75
2022/04/25 15:04:56;;;;;;;57.80;2.00;;;;;;;;;;5094167;28;20950;-75
2022/04/25 15:07:23;;;;;;;57.37;2.30;;;;;;;;;;5093523;28;20540;-75
2022/04/25 15:09:50;;;;;;;57.70;2.40;;;;;;;;;;5093575;28;20501;-75
2022/04/25 15:12:17;;;;;;;57.80;2.70;;;;;;;;;;5093707;28;20458;-74
2022/04/25 15:14:44;;;;;;;57.57;2.40;;;;;;;;;;5094026;28;20565;-74
2022/04/25 15:17:12;;;;;;;58.00;2.60;;;;;;;;;;5093336;28;20550;-75
2022/04/25 15:19:39;;;;;;;57.87;2.20;;;;;;;;;;5093419;28;20462;-75